New Point, Virginia
Current Conditions -  °F | °C
As of 12:58 PM on Tuesday 21 Oct 2014 (Local Time) from KLFI Reporting Station
Clear Clear  
Wind Chill: 70°   Ceiling: Unl
Heat Index: 70°   Visibility: 10mi
Dew Point: 53°   Wind: 8mph
Humidity: 53%   Direction: 230°SW
Pressure: 29.84"   Gusts: NA
Location:  37.35°N, 76.28°W
Report Text: KLFI 211658Z AUTO 23007KT 10SM CLR 21/11 A2984 RMK AO2 SLP111 T02130114 $
Loading
Personal Weather Stations






























Interactive Weather Map
Tropical Storm Tracking
New forecast layout! Learn more

10-Day Weather Forecast

Advertisements
Track Severe Weather on mobile